createdAt,value
2023-03-15T00:01:23.910Z,18.4
2023-03-15T00:07:32.294Z,18.7
2023-03-15T00:13:33.569Z,14.8
2023-03-15T00:19:29.899Z,15.5
2023-03-15T00:25:37.042Z,20.2
2023-03-15T00:31:36.463Z,16.2
2023-03-15T00:37:26.758Z,19.4
2023-03-15T00:49:39.964Z,17.3
2023-03-15T00:55:33.222Z,16.1
2023-03-15T01:01:24.332Z,17.4
2023-03-15T01:07:15.853Z,16.7
2023-03-15T01:13:12.654Z,17.3
2023-03-15T01:19:24.209Z,18.3
2023-03-15T01:25:27.313Z,20.8
2023-03-15T01:31:22.832Z,21.5
2023-03-15T01:37:27.657Z,23
2023-03-15T01:43:21.097Z,24.7
2023-03-15T01:49:38.748Z,22.8
2023-03-15T02:01:43.492Z,25.3
2023-03-15T02:07:38.224Z,22.2
2023-03-15T02:20:06.276Z,20
2023-03-15T02:26:06.503Z,21.2
2023-03-15T02:32:05.005Z,23.1
2023-03-15T02:37:59.825Z,21.9
2023-03-15T02:43:56.530Z,26.6
2023-03-15T02:49:55.838Z,25.2
2023-03-15T02:55:57.945Z,21.1
2023-03-15T03:01:52.811Z,25.7
2023-03-15T03:07:48.303Z,24.2
2023-03-15T03:13:43.716Z,25
2023-03-15T03:19:58.281Z,23.7
2023-03-15T03:25:48.328Z,25.6
2023-03-15T03:31:40.033Z,29.4
2023-03-15T03:37:29.652Z,24.9
2023-03-15T03:43:33.267Z,28
2023-03-15T03:49:23.058Z,24
2023-03-15T03:55:26.253Z,27.2
2023-03-15T04:01:16.584Z,26.4
2023-03-15T04:07:18.836Z,27
2023-03-15T04:13:22.747Z,28.3
2023-03-15T04:19:12.270Z,26.5
2023-03-15T04:25:03.700Z,23.3
2023-03-15T04:30:55.138Z,25.1
2023-03-15T04:36:47.819Z,24.3
2023-03-15T04:42:44.512Z,28.2
2023-03-15T04:48:35.183Z,27.3
2023-03-15T04:54:30.345Z,29
2023-03-15T05:00:30.452Z,25.9
2023-03-15T05:06:31.144Z,27.4
2023-03-15T05:12:22.889Z,28.1
2023-03-15T05:18:13.629Z,28.8
2023-03-15T05:24:05.155Z,29.4
2023-03-15T05:29:59.232Z,14.5
2023-03-15T05:35:50.427Z,6.2
2023-03-15T05:41:55.187Z,2.4
2023-03-15T05:47:46.705Z,2.5
2023-03-15T05:53:36.960Z,19.1
2023-03-15T05:59:29.832Z,2.1
2023-03-15T06:05:26.356Z,1.3
2023-03-15T06:11:23.026Z,1.6
2023-03-15T06:17:15.502Z,2.8
2023-03-15T06:23:09.788Z,2.7
2023-03-15T06:29:06.091Z,2.8
2023-03-15T06:34:57.581Z,3.3
2023-03-15T06:41:05.181Z,3.2
2023-03-15T06:46:57.833Z,4.3
2023-03-15T06:52:47.185Z,5.7
2023-03-15T06:58:35.434Z,5.8
2023-03-15T07:04:27.293Z,7
2023-03-15T07:10:19.375Z,5.4
2023-03-15T07:16:10.333Z,8.5
2023-03-15T07:22:01.884Z,9.5
2023-03-15T07:27:53.736Z,10
2023-03-15T07:33:46.438Z,8.9
2023-03-15T07:39:39.151Z,11.2
2023-03-15T07:45:52.405Z,14.2
2023-03-15T07:51:46.623Z,17.9
2023-03-15T07:57:43.057Z,19.3
2023-03-15T08:03:37.628Z,20.3
2023-03-15T08:09:43.827Z,20.3
2023-03-15T08:15:32.792Z,21.8
2023-03-15T08:21:25.559Z,22.1
2023-03-15T08:27:16.246Z,23.3
2023-03-15T08:33:08.012Z,25.8
2023-03-15T08:39:07.063Z,24.1
2023-03-15T08:45:10.950Z,32.9
2023-03-15T08:51:08.733Z,33.9
2023-03-15T08:56:59.163Z,25.9
2023-03-15T09:02:56.530Z,25.2
2023-03-15T09:08:47.125Z,20.5
2023-03-15T09:14:40.897Z,18.3
2023-03-15T09:20:39.978Z,19.7
2023-03-15T09:26:39.001Z,15.8
2023-03-15T09:32:33.689Z,15.7
2023-03-15T09:38:30.451Z,16.6
2023-03-15T09:44:21.056Z,24.3
2023-03-15T09:50:16.507Z,33
2023-03-15T09:56:12.412Z,34.5
2023-03-15T10:02:12.946Z,33.2
2023-03-15T10:08:20.427Z,35.5
2023-03-15T10:14:25.782Z,37.4
2023-03-15T10:20:20.566Z,34.6
2023-03-15T10:26:27.017Z,31.1
2023-03-15T10:32:17.897Z,29.1
2023-03-15T10:38:10.513Z,29.3
2023-03-15T10:44:05.045Z,23.8
2023-03-15T10:50:25.929Z,21
2023-03-15T11:02:45.230Z,27.1
2023-03-15T11:15:13.997Z,22.5
2023-03-15T11:21:35.278Z,18.6
2023-03-15T11:27:25.378Z,21
2023-03-15T11:33:26.939Z,13.9
2023-03-15T11:39:20.053Z,18.1
2023-03-15T11:51:28.655Z,14.8
2023-03-15T11:57:26.963Z,14.1
2023-03-15T12:03:34.326Z,13.2
2023-03-15T12:09:28.052Z,13.3
2023-03-15T12:15:22.563Z,12.6
2023-03-15T12:21:14.540Z,14.1
2023-03-15T12:27:18.799Z,9.7
2023-03-15T12:33:10.132Z,12
2023-03-15T12:39:01.762Z,12.3
2023-03-15T12:44:56.753Z,12.9
2023-03-15T12:50:46.598Z,10
2023-03-15T12:57:05.373Z,7.2
2023-03-15T13:03:10.730Z,8.1
2023-03-15T13:09:04.735Z,11.6
2023-03-15T13:15:08.240Z,7.4
2023-03-15T13:27:11.082Z,10.2
2023-03-15T13:33:29.588Z,8.5
2023-03-15T13:39:20.957Z,9.7
2023-03-15T13:45:21.194Z,10.9
2023-03-15T13:51:21.577Z,7.8
2023-03-15T13:57:22.269Z,9.5
2023-03-15T14:03:13.576Z,9.1
2023-03-15T14:09:10.986Z,8.4
2023-03-15T14:21:28.414Z,7
2023-03-15T14:29:05.842Z,7.1
2023-03-15T14:35:10.205Z,8.3
2023-03-15T14:41:00.405Z,5.4
2023-03-15T14:46:52.892Z,5.6
2023-03-15T14:52:50.662Z,7.3
2023-03-15T14:58:43.100Z,5.5
2023-03-15T15:04:39.103Z,6.1
2023-03-15T15:10:38.563Z,5.4
2023-03-15T15:16:35.190Z,6.5
2023-03-15T15:22:28.496Z,5.2
2023-03-15T15:34:10.951Z,7.1
2023-03-15T15:40:13.050Z,6
2023-03-15T15:46:07.085Z,4.9
2023-03-15T15:51:58.416Z,3.8
2023-03-15T15:57:55.616Z,6
2023-03-15T16:03:51.732Z,6.9
2023-03-15T16:09:54.544Z,5
2023-03-15T16:15:56.609Z,4.7
2023-03-15T16:21:50.027Z,6
2023-03-15T16:27:47.476Z,4.6
2023-03-15T16:33:40.521Z,4.8
2023-03-15T16:39:34.431Z,5.8
2023-03-15T16:45:34.046Z,4.6
2023-03-15T16:57:44.448Z,7.2
2023-03-15T17:09:56.452Z,8.3
2023-03-15T17:15:53.604Z,8.6
2023-03-15T17:21:57.615Z,9.4
2023-03-15T17:28:01.426Z,29.4
2023-03-15T17:34:02.005Z,45.5
2023-03-15T17:40:11.506Z,14.7
2023-03-15T17:46:02.059Z,11.9
2023-03-15T17:51:57.068Z,13.6
2023-03-15T17:57:59.408Z,11.7
2023-03-15T18:10:05.991Z,8.7
2023-03-15T18:16:17.071Z,8.7
2023-03-15T18:22:08.900Z,11.8
2023-03-15T18:28:02.024Z,7.7
2023-03-15T18:33:59.692Z,10.7
2023-03-15T18:39:48.537Z,6.6
2023-03-15T18:45:42.983Z,7.7
2023-03-15T18:51:35.479Z,10.2
2023-03-15T18:57:45.925Z,8.2
2023-03-15T19:03:38.264Z,15.7
2023-03-15T19:09:31.346Z,12.8
2023-03-15T19:15:22.834Z,16.3
2023-03-15T19:21:15.329Z,15.4
2023-03-15T19:27:06.240Z,11.9
2023-03-15T19:32:59.602Z,14.3
2023-03-15T19:38:53.281Z,13.2
2023-03-15T19:44:42.889Z,18.3
2023-03-15T19:50:36.304Z,16.5
2023-03-15T19:56:27.708Z,15.8
2023-03-15T20:02:21.470Z,9.2
2023-03-15T20:08:15.217Z,15.5
2023-03-15T20:14:06.555Z,12.3
2023-03-15T20:19:58.030Z,13.4
2023-03-15T20:25:58.772Z,16
2023-03-15T20:31:49.656Z,18.3
2023-03-15T20:37:41.308Z,17.5
2023-03-15T20:43:35.334Z,21.1
2023-03-15T20:49:29.397Z,25.5
2023-03-15T20:55:19.125Z,19.5
2023-03-15T21:01:12.662Z,20
2023-03-15T21:07:04.596Z,19
2023-03-15T21:12:59.772Z,25.9
2023-03-15T21:18:51.842Z,21
2023-03-15T21:24:59.587Z,21.3
2023-03-15T21:30:48.839Z,16.1
2023-03-15T21:36:40.947Z,12
2023-03-15T21:42:31.274Z,8.8
2023-03-15T21:48:21.974Z,11.8
2023-03-15T21:54:11.060Z,8.7
2023-03-15T22:00:01.252Z,10.7
2023-03-15T22:05:52.637Z,9.9
2023-03-15T22:11:44.873Z,14.1
2023-03-15T22:17:38.391Z,12.1
2023-03-15T22:23:33.589Z,12.9
2023-03-15T22:29:35.538Z,14.1
2023-03-15T22:35:26.699Z,16.9
2023-03-15T22:41:19.468Z,18.8
2023-03-15T22:47:24.055Z,16.3
2023-03-15T22:53:20.076Z,16.6
2023-03-15T22:59:25.220Z,16.1
2023-03-15T23:05:39.458Z,13.3
2023-03-15T23:11:34.537Z,15.6
2023-03-15T23:17:32.022Z,15.3
2023-03-15T23:23:29.713Z,13.9
2023-03-15T23:29:31.443Z,12
2023-03-15T23:35:47.444Z,15.5
2023-03-15T23:41:58.798Z,13.1
2023-03-15T23:48:01.857Z,16
2023-03-15T23:54:08.118Z,13.5
